OISY  Yasouj  Airport

Iran

Add Bookmark
ICAO OISY
Type Airport
Status Operational
Latitude
30° 42' 1" N
30.700500
Longitude
51° 32' 42" E
51.545101
Local (DST + 5) UTC (GMT + 4)
May 27, 2015 02:06 May 27, 2015 09:36
Sunrise-Sunset Local UTC
Begin Civil Twilight 05:34 01:04
Sunrise 06:01 01:31
Sunset 08:00 15:30
End Civil Twilight 08:27 15:57
VFR
VFR
MVFR
MVFR
IFR
VFR
LIFR
VFR
Unknown
Unavailable

Current Weather

METAR Observed VFR
OISY 270900Z 31012KT 9999 FEW050 27/M06 Q1020 Wed, May 27, 2015 @ 09:00 UTC
(36 Minutes ago)
Visual Flight Rules
Wind Visibility Clouds Conditions
310° at 12 knots (22 kph) 10 km or more
  • Few at 5,000 ft AGL
  • No significant weather
Temperatures Readings Precipitation
Current Temp
27°C
81°F
Dewpoint
-6°C
21°F
Humidity 11%
Altimeter 30.12" Hg
Sea Level Pressure 1,020 mb
Field Elevation
1,811 m
5,942 ft
None Recorded

Additional weather within a 92.6km radius of OISY

Map ICAO Location
OIAH 79.6km W/SW (240°)
VFR
VFR
MVFR
MVFR
IFR
VFR
LIFR
VFR
Unknown
Unavailable
-
-

CheckWX.com is intended as a tool to help pilots better visualize weather data. It is not intended as a substitute for an official weather briefing obtained from a Flight Service Station. CheckWX.com does not meet the FAA requirements for an official pre-flight weather briefing. Therefore, it's important that pilots still call and obtain an official FSS pre-flight weather briefing.

© 2007-2015 CheckWX.com
09:36:59 UTC